Time;durP1;ratioP1;P1;durP2;ratioP2;P2;SDS_P1;SDS_P2;PMS_P1;PMS_P2;Temp;Humidity;BMP_temperature;BMP_pressure;BME280_temperature;BME280_humidity;BME280_pressure;Samples;Min_cycle;Max_cycle;Signal;HPM_P1;HPM_P2
2021/12/06 00:00:01;;;;;;;17.15;14.38;;;;;;;9.74;54.91;99388.48;1791953;78;21121;-62
2021/12/06 00:02:28;;;;;;;18.17;14.70;;;;;;;9.73;54.86;99390.28;1770914;80;21108;-60
2021/12/06 00:04:54;;;;;;;16.73;14.30;;;;;;;9.74;54.80;99389.80;1790991;78;21061;-60
2021/12/06 00:07:23;;;;;;;16.65;13.75;;;;;;;9.73;54.73;99387.62;1776143;80;21072;-60
2021/12/06 00:09:51;;;;;;;17.42;14.10;;;;;;;9.73;54.70;99390.78;1819879;77;21061;-61
2021/12/06 00:12:17;;;;;;;17.48;13.83;;;;;;;9.72;54.63;99389.15;1793218;79;22286;-61
2021/12/06 00:14:44;;;;;;;14.98;13.20;;;;;;;9.71;54.63;99387.48;1803128;79;21025;-62
2021/12/06 00:17:13;;;;;;;17.07;14.00;;;;;;;9.71;54.56;99392.78;1809477;78;21630;-61
2021/12/06 00:19:40;;;;;;;16.90;13.95;;;;;;;9.70;54.52;99387.17;1787368;79;21521;-62
2021/12/06 00:22:14;;;;;;;17.20;13.95;;;;;;;9.70;54.47;99380.54;1760612;80;21057;-61
2021/12/06 00:24:40;;;;;;;16.97;13.43;;;;;;;9.70;54.39;99384.52;1840259;77;22280;-61
2021/12/06 00:27:07;;;;;;;17.10;13.70;;;;;;;9.69;54.38;99382.84;1826388;77;20977;-61
2021/12/06 00:29:34;;;;;;;17.20;13.68;;;;;;;9.69;54.35;99384.17;1832439;77;21023;-61
2021/12/06 00:32:00;;;;;;;14.60;12.93;;;;;;;9.68;54.29;99375.40;1834292;77;21009;-61
2021/12/06 00:34:33;;;;;;;16.65;13.60;;;;;;;9.66;54.25;99372.09;1835105;77;21014;-61
2021/12/06 00:37:15;;;;;;;15.48;12.95;;;;;;;9.68;54.20;99379.85;1801444;79;21124;-61
2021/12/06 00:39:24;;;;;;;15.53;13.38;;;;;;;9.67;54.16;99376.89;1777372;80;21104;-59
2021/12/06 00:41:51;;;;;;;14.43;11.97;;;;;;;9.65;54.12;99379.20;1813232;79;21021;-60
2021/12/06 00:44:17;;;;;;;14.13;12.63;;;;;;;9.65;54.07;99373.08;1748671;80;21068;-61
2021/12/06 00:46:44;;;;;;;14.30;12.60;;;;;;;9.63;54.05;99371.91;1741776;81;21549;-61
2021/12/06 00:49:11;;;;;;;16.00;13.70;;;;;;;9.64;54.02;99372.77;1781667;80;22303;-61
2021/12/06 00:51:38;;;;;;;15.88;13.03;;;;;;;9.63;53.98;99367.94;1811559;79;21053;-62
2021/12/06 00:54:04;;;;;;;15.55;13.48;;;;;;;9.63;53.97;99365.28;1781328;79;21054;-61
2021/12/06 00:56:31;;;;;;;16.23;13.53;;;;;;;9.63;53.91;99361.30;1793544;79;21482;-61
2021/12/06 00:58:58;;;;;;;16.93;13.65;;;;;;;9.62;53.89;99366.30;1848489;77;21496;-60
2021/12/06 01:01:24;;;;;;;15.35;12.60;;;;;;;9.63;53.86;99361.81;1831976;77;21049;-61
2021/12/06 01:03:50;;;;;;;15.28;13.40;;;;;;;9.63;53.82;99355.18;1828019;77;21461;-61
2021/12/06 01:06:17;;;;;;;16.20;13.50;;;;;;;9.62;53.76;99357.52;1839947;77;20998;-61
2021/12/06 01:08:44;;;;;;;16.10;13.10;;;;;;;9.62;53.77;99361.50;1821177;77;20998;-62
2021/12/06 01:11:10;;;;;;;17.50;14.00;;;;;;;9.62;53.73;99356.20;1820609;77;21133;-61
2021/12/06 01:13:37;;;;;;;15.98;14.28;;;;;;;9.61;53.70;99354.02;1840203;77;21056;-61
2021/12/06 01:16:06;;;;;;;15.58;13.10;;;;;;;9.61;53.64;99353.20;1816706;77;21107;-61
2021/12/06 01:18:33;;;;;;;16.02;13.40;;;;;;;9.60;53.64;99351.05;1843693;77;21339;-61
2021/12/06 01:21:09;;;;;;;17.00;13.70;;;;;;;9.57;53.61;99348.73;1791529;78;21084;-61
2021/12/06 01:23:40;;;;;;;16.67;14.90;;;;;;;9.60;53.58;99351.05;1812711;77;21033;-61
2021/12/06 01:39:09;;;;;;;15.28;13.00;;;;;;;9.58;53.48;99343.77;1791890;78;21024;-62
2021/12/06 01:39:26;;;;;;;15.25;13.18;;;;;;;9.56;53.45;99336.97;1814954;77;21092;-61
2021/12/06 01:41:59;;;;;;;14.68;12.43;;;;;;;9.55;53.44;99334.00;1816998;77;21540;-61
2021/12/06 01:44:28;;;;;;;15.00;12.93;;;;;;;9.54;53.44;99338.97;1814521;77;21088;-61
2021/12/06 01:47:06;;;;;;;14.28;12.63;;;;;;;9.54;53.45;99333.19;1763508;80;21026;-61
2021/12/06 01:49:36;;;;;;;16.40;13.05;;;;;;;9.53;53.44;99322.23;1792099;79;21488;-62
2021/12/06 01:52:09;;;;;;;16.00;13.98;;;;;;;9.55;53.41;99327.38;1781235;79;21124;-61
2021/12/06 01:54:36;;;;;;;15.25;13.58;;;;;;;9.54;53.37;99323.05;1775511;80;21084;-62
2021/12/06 01:57:04;;;;;;;16.05;14.35;;;;;;;9.52;53.38;99317.95;1770813;79;21084;-62
2021/12/06 01:59:30;;;;;;;15.48;13.13;;;;;;;9.54;53.36;99323.91;1793957;79;21026;-62
2021/12/06 02:01:57;;;;;;;15.10;13.40;;;;;;;9.54;53.32;99317.75;1779665;79;21010;-62
2021/12/06 02:04:24;;;;;;;14.10;12.60;;;;;;;9.54;53.32;99327.03;1763841;80;21104;-62
2021/12/06 02:06:51;;;;;;;14.47;12.88;;;;;;;9.54;53.29;99330.53;1759729;79;21038;-61
2021/12/06 02:09:19;;;;;;;14.53;12.98;;;;;;;9.54;53.26;99322.58;1781111;80;21363;-61
2021/12/06 02:11:46;;;;;;;14.80;13.20;;;;;;;9.55;53.23;99328.19;1775153;80;20978;-61
2021/12/06 02:14:28;;;;;;;14.58;12.47;;;;;;;9.54;53.21;99329.20;1815047;77;21049;-61
2021/12/06 02:17:06;;;;;;;14.58;12.98;;;;;;;9.55;53.19;99323.39;1837736;77;20983;-62
2021/12/06 02:19:32;;;;;;;14.45;12.88;;;;;;;9.55;53.15;99328.19;1814063;77;21025;-61
2021/12/06 02:21:56;;;;;;;15.08;13.22;;;;;;;9.54;53.14;99319.92;1820683;77;21068;-61
2021/12/06 02:24:23;;;;;;;15.18;13.05;;;;;;;9.54;53.12;99322.58;1815960;77;21025;-61
2021/12/06 02:26:51;;;;;;;14.98;13.00;;;;;;;9.53;53.15;99319.58;1834747;77;21600;-62
2021/12/06 02:29:17;;;;;;;15.63;12.82;;;;;;;9.53;53.12;99316.93;1842928;77;21049;-62
2021/12/06 02:31:44;;;;;;;14.35;12.10;;;;;;;9.52;53.08;99312.64;1816925;77;21513;-61
2021/12/06 02:34:10;;;;;;;13.70;12.13;;;;;;;9.53;53.07;99311.62;1822338;77;20998;-61
2021/12/06 02:36:37;;;;;;;15.18;12.85;;;;;;;9.53;53.06;99308.98;1842270;77;21001;-62
2021/12/06 02:39:05;;;;;;;13.00;11.60;;;;;;;9.53;53.03;99309.48;1824631;77;21493;-61
2021/12/06 02:41:33;;;;;;;14.00;12.50;;;;;;;9.53;53.00;99299.70;1801784;79;21106;-61
2021/12/06 02:44:00;;;;;;;13.90;12.28;;;;;;;9.54;53.00;99307.14;1776296;79;20982;-61
2021/12/06 02:46:27;;;;;;;13.00;11.65;;;;;;;9.53;52.98;99311.62;1815764;78;21002;-61
2021/12/06 02:48:53;;;;;;;14.05;12.43;;;;;;;9.54;52.99;99319.08;1775397;80;21030;-62
2021/12/06 02:51:20;;;;;;;12.95;11.65;;;;;;;9.54;52.97;99321.73;1806666;79;21006;-62
2021/12/06 02:53:48;;;;;;;13.68;11.53;;;;;;;9.53;52.94;99311.62;1776837;79;21886;-62
2021/12/06 02:56:31;;;;;;;13.38;11.83;;;;;;;9.52;52.91;99316.63;1797952;79;21519;-62
2021/12/06 02:58:56;;;;;;;13.85;11.90;;;;;;;9.54;52.88;99319.08;1790015;79;21042;-61
2021/12/06 03:01:31;;;;;;;12.73;11.25;;;;;;;9.53;52.87;99309.48;1794020;79;21100;-62
2021/12/06 03:03:58;;;;;;;14.18;12.07;;;;;;;9.53;52.86;99311.62;1777263;79;21505;-62
2021/12/06 03:06:26;;;;;;;13.53;11.95;;;;;;;9.53;52.84;99313.46;1787980;79;21099;-62
2021/12/06 03:09:05;;;;;;;12.73;11.38;;;;;;;9.53;52.84;99309.48;1795545;79;21509;-61
2021/12/06 03:11:32;;;;;;;12.98;11.63;;;;;;;9.53;52.81;99306.83;1798508;79;21069;-63
2021/12/06 03:14:00;;;;;;;13.03;11.57;;;;;;;9.53;52.80;99315.61;1784970;79;21045;-62
2021/12/06 03:16:26;;;;;;;13.62;11.30;;;;;;;9.52;52.81;99321.92;1795239;79;21430;-62
2021/12/06 03:18:54;;;;;;;11.97;10.68;;;;;;;9.53;52.79;99318.77;1776710;79;21113;-63
2021/12/06 03:21:22;;;;;;;12.80;11.30;;;;;;;9.53;52.78;99320.91;1775822;79;21029;-62
2021/12/06 03:23:48;;;;;;;12.47;10.82;;;;;;;9.53;52.77;99320.09;1775325;80;21541;-61
2021/12/06 03:26:17;;;;;;;12.55;11.03;;;;;;;9.53;52.76;99325.39;1790569;79;21948;-63
2021/12/06 03:28:44;;;;;;;12.53;11.12;;;;;;;9.53;52.73;99320.91;1834992;77;21080;-62
2021/12/06 03:31:12;;;;;;;12.53;10.85;;;;;;;9.52;52.72;99317.95;1839259;77;21119;-62
2021/12/06 03:33:40;;;;;;;12.13;10.38;;;;;;;9.53;52.72;99326.72;1825610;77;21478;-62
2021/12/06 03:36:08;;;;;;;12.18;10.93;;;;;;;9.52;52.69;99323.25;1844712;77;20983;-61
2021/12/06 03:38:35;;;;;;;11.08;9.65;;;;;;;9.53;52.69;99332.84;1822937;77;20998;-62
2021/12/06 03:41:04;;;;;;;11.12;9.68;;;;;;;9.52;52.67;99332.53;1839702;77;21064;-61
2021/12/06 03:43:33;;;;;;;11.75;10.13;;;;;;;9.53;52.67;99332.02;1837448;77;21090;-62
2021/12/06 03:46:00;;;;;;;11.25;10.05;;;;;;;9.52;52.64;99333.86;1815163;77;21064;-61
2021/12/06 03:48:28;;;;;;;11.28;9.85;;;;;;;9.53;52.63;99332.84;1823169;77;20990;-60
2021/12/06 03:50:57;;;;;;;11.15;9.70;;;;;;;9.53;52.62;99334.17;1831527;77;20978;-62
2021/12/06 03:53:23;;;;;;;12.07;10.80;;;;;;;9.53;52.61;99338.14;1756272;79;21054;-61
2021/12/06 03:55:50;;;;;;;11.48;10.28;;;;;;;9.53;52.58;99337.33;1800664;79;21125;-61
2021/12/06 03:58:18;;;;;;;10.40;9.20;;;;;;;9.52;52.59;99336.51;1772263;79;21251;-61
2021/12/06 04:00:44;;;;;;;11.25;10.00;;;;;;;9.53;52.57;99339.98;1783885;79;21454;-62
2021/12/06 04:03:13;;;;;;;10.58;9.45;;;;;;;9.53;52.56;99337.33;1753155;79;21331;-61
2021/12/06 04:05:39;;;;;;;12.05;10.65;;;;;;;9.53;52.55;99329.38;1794659;79;21557;-62
2021/12/06 04:08:06;;;;;;;11.12;9.50;;;;;;;9.52;52.53;99336.51;1792286;79;21125;-61
2021/12/06 04:10:33;;;;;;;11.35;10.00;;;;;;;9.52;52.53;99320.59;1806675;78;21030;-62
2021/12/06 04:13:04;;;;;;;10.38;9.38;;;;;;;9.52;52.53;99323.25;1783478;79;21025;-61
2021/12/06 04:15:31;;;;;;;11.38;9.98;;;;;;;9.51;52.51;99324.74;1849775;77;21072;-61
2021/12/06 04:17:58;;;;;;;9.98;8.98;;;;;;;9.51;52.50;99318.93;1829622;77;21509;-62
2021/12/06 04:20:25;;;;;;;10.85;9.35;;;;;;;9.51;52.49;99320.25;1826229;77;21129;-62
2021/12/06 04:22:53;;;;;;;9.95;8.85;;;;;;;9.51;52.49;99328.72;1837600;77;20938;-61
2021/12/06 04:25:20;;;;;;;11.05;9.95;;;;;;;9.52;52.48;99327.70;1832191;77;21520;-61
2021/12/06 04:27:59;;;;;;;11.75;10.25;;;;;;;9.51;52.46;99317.61;1835457;77;20989;-61
2021/12/06 04:30:25;;;;;;;10.28;9.20;;;;;;;9.51;52.47;99320.25;1828979;77;21009;-63
2021/12/06 04:32:53;;;;;;;10.98;9.75;;;;;;;9.51;52.46;99325.56;1835647;77;21173;-62
2021/12/06 04:35:20;;;;;;;11.15;9.58;;;;;;;9.51;52.44;99326.89;1837889;77;21108;-60
2021/12/06 04:37:48;;;;;;;10.13;9.13;;;;;;;9.50;52.43;99314.61;1765027;79;21087;-59
2021/12/06 04:40:15;;;;;;;10.63;9.53;;;;;;;9.51;52.43;99313.63;1746459;80;21600;-60
2021/12/06 04:42:41;;;;;;;10.93;9.83;;;;;;;9.51;52.43;99317.61;1788208;79;21018;-60
2021/12/06 04:45:11;;;;;;;9.55;8.55;;;;;;;9.51;52.40;99314.95;1853991;77;21006;-60
2021/12/06 04:47:37;;;;;;;11.83;9.70;;;;;;;9.50;52.40;99314.61;1831081;77;21572;-60
2021/12/06 04:50:07;;;;;;;10.45;9.35;;;;;;;9.51;52.41;99318.93;1842307;77;20985;-59
2021/12/06 04:52:33;;;;;;;10.15;9.05;;;;;;;9.51;52.40;99322.91;1825934;77;21324;-59
2021/12/06 04:55:00;;;;;;;10.10;9.08;;;;;;;9.51;52.39;99340.14;1782854;80;21080;-59
2021/12/06 04:57:36;;;;;;;10.60;9.38;;;;;;;9.50;52.37;99342.45;1772531;79;21101;-61
2021/12/06 05:00:28;;;;;;;10.78;9.65;;;;;;;9.51;52.36;99335.34;1738596;80;20993;-59
2021/12/06 05:02:55;;;;;;;9.75;8.85;;;;;;;9.51;52.33;99333.52;1827277;77;21084;-60
2021/12/06 05:05:30;;;;;;;9.90;8.60;;;;;;;9.50;52.35;99332.35;1818597;77;21053;-59
2021/12/06 05:08:10;;;;;;;10.00;8.63;;;;;;;9.50;52.35;99335.00;1830328;77;21049;-59
2021/12/06 05:10:37;;;;;;;10.08;9.03;;;;;;;9.49;52.35;99332.05;1798657;76;21129;-59
2021/12/06 05:13:05;;;;;;;9.30;8.28;;;;;;;9.48;52.35;99337.82;1838362;77;21044;-60
2021/12/06 05:15:32;;;;;;;9.25;8.25;;;;;;;9.48;52.34;99335.17;1840130;77;21026;-60
2021/12/06 05:18:00;;;;;;;10.90;9.38;;;;;;;9.49;52.34;99338.67;1816254;77;21634;-59
2021/12/06 05:20:26;;;;;;;9.40;8.50;;;;;;;9.49;52.34;99343.97;1744705;80;21019;-59
2021/12/06 05:22:53;;;;;;;9.15;8.10;;;;;;;9.48;52.34;99347.09;1797819;79;21092;-59
2021/12/06 05:25:23;;;;;;;9.50;8.50;;;;;;;9.48;52.32;99343.63;1783886;80;21097;-60
2021/12/06 05:27:49;;;;;;;10.05;9.05;;;;;;;9.48;52.32;99344.45;1766938;79;21053;-59
2021/12/06 05:30:20;;;;;;;9.65;8.65;;;;;;;9.48;52.32;99340.47;1775879;80;21014;-60
2021/12/06 05:32:45;;;;;;;10.13;8.48;;;;;;;9.48;52.31;99352.41;1780457;80;21085;-62
2021/12/06 05:35:12;;;;;;;9.00;8.10;;;;;;;9.49;52.30;99354.07;1772192;80;21130;-60
2021/12/06 05:37:46;;;;;;;9.83;8.78;;;;;;;9.48;52.30;99352.41;1774979;80;21061;-59
2021/12/06 05:40:18;;;;;;;9.78;8.33;;;;;;;9.49;52.28;99347.95;1761805;80;21106;-60
2021/12/06 05:42:44;;;;;;;8.83;7.92;;;;;;;9.48;52.28;99347.09;1817776;77;21118;-59
2021/12/06 05:45:14;;;;;;;10.20;9.10;;;;;;;9.48;52.28;99345.77;1812443;77;21030;-59
2021/12/06 05:47:41;;;;;;;9.30;8.23;;;;;;;9.49;52.28;99351.42;1775418;80;21873;-58
2021/12/06 05:50:09;;;;;;;9.15;8.20;;;;;;;9.48;52.27;99352.41;1762607;80;21086;-59
2021/12/06 05:52:36;;;;;;;9.73;8.73;;;;;;;9.48;52.27;99346.28;1812662;78;21041;-59
2021/12/06 05:55:04;;;;;;;9.28;8.28;;;;;;;9.49;52.26;99349.28;1807573;79;21537;-61
2021/12/06 05:57:31;;;;;;;8.98;8.08;;;;;;;9.48;52.26;99360.36;1752996;80;21654;-59
2021/12/06 05:59:58;;;;;;;9.90;8.80;;;;;;;9.49;52.26;99364.67;1802144;78;21114;-59
2021/12/06 06:02:24;;;;;;;9.70;8.28;;;;;;;9.50;52.27;99352.23;1797837;79;21090;-63
2021/12/06 06:04:51;;;;;;;9.35;8.30;;;;;;;9.51;52.25;99357.88;1789677;79;20979;-58
2021/12/06 06:07:19;;;;;;;9.45;8.48;;;;;;;9.50;52.22;99358.36;1843093;77;21553;-58
2021/12/06 06:09:45;;;;;;;9.13;8.23;;;;;;;9.50;52.22;99357.03;1830788;77;21016;-60
2021/12/06 06:12:12;;;;;;;9.78;8.78;;;;;;;9.51;52.22;99365.34;1836271;75;23296;-63
2021/12/06 06:14:38;;;;;;;9.38;8.38;;;;;;;9.51;52.21;99362.68;1825038;77;21002;-61
2021/12/06 06:17:13;;;;;;;9.48;8.33;;;;;;;9.52;52.20;99364.35;1839534;77;20998;-62
2021/12/06 06:19:39;;;;;;;8.50;7.60;;;;;;;9.52;52.19;99364.83;1844572;77;20994;-61
2021/12/06 06:22:05;;;;;;;9.28;8.10;;;;;;;9.52;52.19;99367.00;1828066;77;21505;-61
2021/12/06 06:24:32;;;;;;;9.75;8.75;;;;;;;9.52;52.17;99372.30;1822899;77;21020;-59
2021/12/06 06:26:58;;;;;;;10.15;8.45;;;;;;;9.52;52.16;99367.00;1830167;77;21000;-61
2021/12/06 06:29:25;;;;;;;9.10;8.15;;;;;;;9.52;52.17;99373.63;1845564;77;21002;-59
2021/12/06 06:31:52;;;;;;;10.08;8.85;;;;;;;9.54;52.16;99369.45;1835335;77;21009;-61
2021/12/06 06:34:18;;;;;;;10.15;8.63;;;;;;;9.54;52.15;99365.48;1848068;77;21631;-62
2021/12/06 06:36:45;;;;;;;9.50;8.45;;;;;;;9.54;52.14;99365.00;1755011;78;22164;-59
2021/12/06 06:39:13;;;;;;;11.48;9.15;;;;;;;9.50;52.13;99361.02;1810110;79;21478;-60
2021/12/06 06:41:39;;;;;;;9.98;8.55;;;;;;;9.54;52.12;99372.96;1784639;79;21298;-60
2021/12/06 06:44:06;;;;;;;9.50;8.33;;;;;;;9.53;52.10;99362.52;1852007;77;21005;-61
2021/12/06 06:46:33;;;;;;;9.93;8.73;;;;;;;9.55;52.10;99360.02;1763904;79;21113;-60
2021/12/06 06:48:59;;;;;;;10.48;8.65;;;;;;;9.57;52.10;99359.84;1788911;78;21134;-60
2021/12/06 06:51:27;;;;;;;10.15;8.85;;;;;;;9.56;52.09;99361.69;1783632;80;21533;-60
2021/12/06 06:53:53;;;;;;;10.75;9.43;;;;;;;9.57;52.08;99372.60;1805862;78;21013;-59
2021/12/06 06:56:20;;;;;;;9.18;8.28;;;;;;;9.58;52.06;99372.95;1846149;77;21189;-61
2021/12/06 06:58:48;;;;;;;10.20;8.53;;;;;;;9.58;52.06;99371.62;1849190;77;21030;-60
2021/12/06 07:01:14;;;;;;;10.00;8.60;;;;;;;9.60;52.06;99376.73;1839493;77;21136;-60
2021/12/06 07:03:40;;;;;;;10.88;9.20;;;;;;;9.60;52.06;99378.91;1829883;77;20990;-60
2021/12/06 07:06:07;;;;;;;10.38;9.05;;;;;;;9.60;52.02;99381.55;1748950;79;21046;-61
2021/12/06 07:08:33;;;;;;;9.73;8.65;;;;;;;9.61;52.02;99381.87;1775602;80;21049;-61
2021/12/06 07:11:05;;;;;;;9.58;8.45;;;;;;;9.63;52.02;99387.83;1799166;79;21061;-62
2021/12/06 07:13:36;;;;;;;10.72;8.95;;;;;;;9.63;52.00;99373.75;1789035;79;21138;-60
2021/12/06 07:16:03;;;;;;;10.63;9.15;;;;;;;9.63;51.98;99374.56;1771189;80;21093;-61
2021/12/06 07:18:30;;;;;;;10.98;9.23;;;;;;;9.64;51.97;99377.56;1753752;80;21026;-62
2021/12/06 07:20:56;;;;;;;9.85;8.65;;;;;;;9.65;51.99;99375.73;1770531;80;22438;-61
2021/12/06 07:23:22;;;;;;;11.50;8.78;;;;;;;9.66;51.96;99376.07;1788973;78;21027;-60
2021/12/06 07:25:49;;;;;;;11.18;9.78;;;;;;;9.65;51.95;99383.17;1782410;79;21221;-61
2021/12/06 07:28:16;;;;;;;12.25;9.50;;;;;;;9.69;51.93;99384.17;1767781;79;21529;-60
2021/12/06 07:30:43;;;;;;;10.72;9.25;;;;;;;9.69;51.91;99379.69;1774678;80;21042;-61
2021/12/06 07:33:09;;;;;;;12.93;9.33;;;;;;;9.70;51.91;99381.86;1765849;80;21631;-60
2021/12/06 07:35:36;;;;;;;9.70;8.73;;;;;;;9.71;51.89;99384.83;1774025;80;21038;-61
2021/12/06 07:38:03;;;;;;;11.03;9.40;;;;;;;9.72;52.56;99387.31;1801376;79;21089;-61
2021/12/06 07:40:30;;;;;;;11.70;9.83;;;;;;;9.73;53.46;99384.97;1805508;79;21022;-62
2021/12/06 07:42:57;;;;;;;11.80;9.08;;;;;;;9.75;53.66;99386.95;1758856;79;21676;-61
2021/12/06 07:45:24;;;;;;;12.37;9.50;;;;;;;9.77;53.70;99388.12;1780464;78;21055;-63
2021/12/06 07:47:50;;;;;;;10.50;9.40;;;;;;;9.78;53.75;99391.11;1774799;80;21021;-61
2021/12/06 07:50:19;;;;;;;10.32;8.93;;;;;;;9.79;53.71;99388.30;1778551;80;21503;-61
2021/12/06 07:52:46;;;;;;;11.97;10.15;;;;;;;9.80;53.66;99390.44;1785244;80;21061;-61
2021/12/06 07:55:14;;;;;;;10.95;8.93;;;;;;;9.81;53.60;99400.88;1782225;80;21068;-61
2021/12/06 07:57:41;;;;;;;11.73;9.78;;;;;;;9.82;53.51;99392.42;1769611;80;21552;-61
2021/12/06 08:00:12;;;;;;;10.85;9.05;;;;;;;9.84;53.44;99394.40;1763439;80;21013;-61
2021/12/06 08:02:39;;;;;;;11.30;9.65;;;;;;;9.84;53.33;99397.88;1780682;80;21101;-62
2021/12/06 08:07:53;;;;;;;10.80;9.38;;;;;;;9.85;53.21;99404.02;1761614;80;21029;-60
2021/12/06 08:10:21;;;;;;;11.48;9.78;;;;;;;9.86;53.14;99409.64;1766748;80;22049;-62
2021/12/06 08:12:48;;;;;;;12.73;10.08;;;;;;;9.87;53.08;99412.64;1763958;80;21101;-61
2021/12/06 08:15:15;;;;;;;13.45;9.88;;;;;;;9.87;53.04;99411.31;1752809;80;21151;-62
2021/12/06 08:17:43;;;;;;;12.20;9.75;;;;;;;9.88;52.96;99414.28;1759551;80;21054;-63
2021/12/06 08:20:11;;;;;;;11.55;9.45;;;;;;;9.89;52.89;99418.59;1771988;80;21017;-61
2021/12/06 08:22:37;;;;;;;10.32;9.23;;;;;;;9.90;52.85;99418.09;1792649;77;21549;-61
2021/12/06 08:25:04;;;;;;;12.53;10.58;;;;;;;9.90;52.80;99413.61;1812417;78;21005;-60
2021/12/06 08:27:32;;;;;;;13.62;10.58;;;;;;;9.91;52.76;99403.33;1818855;78;21083;-61
2021/12/06 08:29:58;;;;;;;12.28;10.53;;;;;;;9.92;52.70;99406.30;1814056;78;21041;-60
2021/12/06 08:32:24;;;;;;;12.50;10.15;;;;;;;9.93;52.67;99408.45;1809546;78;21092;-62
2021/12/06 08:34:51;;;;;;;13.08;10.75;;;;;;;9.94;52.63;99412.77;1809347;78;20998;-61
2021/12/06 08:37:17;;;;;;;13.13;10.80;;;;;;;9.94;52.60;99406.13;1805725;78;21451;-61
2021/12/06 08:39:44;;;;;;;11.28;9.80;;;;;;;9.94;52.55;99400.31;1813605;78;21133;-61
2021/12/06 08:42:10;;;;;;;11.50;10.30;;;;;;;9.96;52.50;99405.46;1807757;77;21526;-62
2021/12/06 08:44:36;;;;;;;14.00;10.08;;;;;;;9.95;52.47;99395.86;1795710;78;21481;-60
2021/12/06 08:47:04;;;;;;;11.93;10.32;;;;;;;9.95;52.44;99388.72;1812924;77;21045;-61
2021/12/06 08:49:30;;;;;;;12.55;10.38;;;;;;;9.96;52.42;99386.88;1813775;78;21088;-61
2021/12/06 08:51:57;;;;;;;14.50;10.78;;;;;;;9.97;52.41;99385.90;1806574;77;21132;-61
2021/12/06 08:54:29;;;;;;;14.25;10.82;;;;;;;9.97;52.37;99374.78;1807074;78;21052;-63
2021/12/06 08:56:57;;;;;;;12.78;10.05;;;;;;;9.97;52.33;99366.00;1804358;77;21038;-61
2021/12/06 08:59:24;;;;;;;12.43;10.53;;;;;;;9.98;52.31;99368.96;1801363;78;22429;-62
2021/12/06 09:01:54;;;;;;;11.93;10.08;;;;;;;9.98;52.29;99364.47;1814394;78;21011;-62
2021/12/06 09:04:21;;;;;;;13.25;10.65;;;;;;;9.99;52.27;99360.02;1799978;78;21088;-61
2021/12/06 09:06:50;;;;;;;13.35;11.18;;;;;;;9.99;52.26;99362.16;1819145;77;21009;-60
2021/12/06 09:09:20;;;;;;;13.72;10.68;;;;;;;10.00;52.24;99357.16;1841792;77;21045;-60
2021/12/06 09:11:48;;;;;;;14.05;11.22;;;;;;;10.01;52.20;99358.83;1816770;77;21052;-63
2021/12/06 09:14:16;;;;;;;12.30;10.48;;;;;;;10.02;52.20;99353.02;1827202;77;21032;-61
2021/12/06 09:16:43;;;;;;;12.88;10.50;;;;;;;10.03;52.16;99340.09;1841454;77;21109;-61
2021/12/06 09:19:11;;;;;;;13.35;11.22;;;;;;;10.03;52.15;99344.06;1829802;76;21067;-60
2021/12/06 09:21:38;;;;;;;12.33;10.75;;;;;;;10.05;52.12;99344.72;1826535;76;21134;-60
2021/12/06 09:24:11;;;;;;;12.80;10.48;;;;;;;10.05;52.10;99340.73;1840282;76;21545;-60
2021/12/06 09:26:38;;;;;;;13.60;11.12;;;;;;;10.06;52.10;99333.59;1844983;77;21017;-61
2021/12/06 09:29:05;;;;;;;13.72;11.30;;;;;;;10.06;52.08;99326.95;1829455;76;21919;-61
2021/12/06 09:31:32;;;;;;;13.32;11.25;;;;;;;10.06;52.07;99321.14;1839509;77;21664;-61
2021/12/06 09:33:58;;;;;;;13.10;10.65;;;;;;;10.08;52.04;99318.31;1824712;76;21025;-60
2021/12/06 09:36:25;;;;;;;14.98;11.40;;;;;;;10.08;52.03;99319.14;1818107;77;21064;-61
2021/12/06 09:38:52;;;;;;;14.40;11.28;;;;;;;10.09;52.00;99318.66;1823798;77;21097;-61
2021/12/06 09:41:23;;;;;;;15.23;11.65;;;;;;;10.09;51.98;99318.15;1845165;77;21284;-60
2021/12/06 09:43:51;;;;;;;16.95;12.18;;;;;;;10.10;51.96;99318.48;1826122;77;21033;-62
2021/12/06 09:46:18;;;;;;;13.75;11.25;;;;;;;10.11;51.96;99314.00;1826496;77;21030;-62
2021/12/06 09:48:45;;;;;;;12.95;10.78;;;;;;;10.12;51.95;99307.67;1836727;77;21005;-60
2021/12/06 09:51:21;;;;;;;14.15;10.88;;;;;;;10.12;51.96;99310.33;1825943;77;21074;-63
2021/12/06 09:53:48;;;;;;;13.78;11.25;;;;;;;10.12;51.92;99308.52;1821618;77;21089;-61
2021/12/06 09:56:23;;;;;;;12.53;10.95;;;;;;;10.13;51.91;99296.89;1825529;77;21030;-62
2021/12/06 09:58:52;;;;;;;13.00;11.18;;;;;;;10.13;51.89;99288.11;1825099;76;21018;-61
2021/12/06 10:01:32;;;;;;;13.05;10.95;;;;;;;10.13;51.88;99300.05;1839649;77;21065;-61
2021/12/06 10:03:58;;;;;;;13.32;11.10;;;;;;;10.13;51.87;99295.56;1824361;77;21010;-62
2021/12/06 10:06:26;;;;;;;14.15;11.75;;;;;;;10.14;51.87;99292.39;1846832;75;22309;-62
2021/12/06 10:08:54;;;;;;;14.18;11.35;;;;;;;10.13;51.86;99294.23;1835171;77;21026;-65
2021/12/06 10:11:24;;;;;;;15.08;11.97;;;;;;;10.13;51.85;99304.03;1846780;77;21524;-61
2021/12/06 10:13:50;;;;;;;15.23;11.75;;;;;;;10.14;51.86;99303.86;1844689;77;21022;-60
2021/12/06 10:16:17;;;;;;;14.73;11.85;;;;;;;10.14;51.86;99297.23;1852839;77;21053;-63
2021/12/06 10:21:06;;;;;;;15.25;12.05;;;;;;;10.19;51.84;99293.52;1854442;76;28521;-61
2021/12/06 10:23:36;;;;;;;15.25;11.30;;;;;;;10.12;51.86;99299.23;1809873;78;21020;-60
2021/12/06 10:26:01;;;;;;;15.58;11.88;;;;;;;10.13;51.86;99296.89;1811148;77;21115;-61
2021/12/06 10:28:29;;;;;;;15.15;11.83;;;;;;;10.14;51.84;99303.02;1806446;77;21544;-60
2021/12/06 10:31:01;;;;;;;15.05;11.97;;;;;;;10.14;51.84;99289.27;1820724;78;21497;-61
2021/12/06 10:33:33;;;;;;;15.30;11.83;;;;;;;10.13;51.81;99284.94;1815793;78;21080;-60
2021/12/06 10:36:04;;;;;;;12.82;11.00;;;;;;;10.15;51.80;99286.09;1809235;77;21111;-61
2021/12/06 10:38:34;;;;;;;14.38;12.07;;;;;;;10.15;51.82;99284.27;1812355;77;21482;-62
2021/12/06 10:41:05;;;;;;;18.25;12.90;;;;;;;10.16;51.79;99287.73;1813704;78;20985;-61
2021/12/06 10:43:32;;;;;;;16.32;12.70;;;;;;;10.16;51.80;99279.77;1816340;78;20963;-62
2021/12/06 10:45:59;;;;;;;16.45;12.50;;;;;;;10.16;51.78;99275.79;1816198;77;20986;-61
2021/12/06 10:48:30;;;;;;;15.00;11.90;;;;;;;10.16;51.77;99270.00;1795469;79;21754;-60
2021/12/06 10:51:01;;;;;;;13.70;11.70;;;;;;;10.16;51.77;99267.83;1804512;77;21120;-62
2021/12/06 10:53:42;;;;;;;14.07;11.12;;;;;;;10.16;51.78;99273.14;1814308;77;21029;-62
2021/12/06 10:56:16;;;;;;;15.98;12.10;;;;;;;10.17;51.77;99275.63;1805964;77;21063;-61
2021/12/06 10:58:38;;;;;;;15.05;12.25;;;;;;;10.17;51.76;99274.80;1812468;77;21052;-62
2021/12/06 11:01:11;;;;;;;14.87;11.88;;;;;;;10.17;51.74;99272.15;1805583;78;21486;-61
2021/12/06 11:03:45;;;;;;;14.43;12.28;;;;;;;10.17;51.75;99280.93;1815706;77;21136;-62
2021/12/06 11:06:19;;;;;;;15.28;11.95;;;;;;;10.18;51.73;99275.95;1812133;78;21053;-61
2021/12/06 11:08:48;;;;;;;14.63;11.95;;;;;;;10.18;51.71;99269.83;1797476;78;21033;-61
2021/12/06 11:11:20;;;;;;;14.70;12.40;;;;;;;10.18;51.73;99277.80;1823166;78;21034;-61
2021/12/06 11:13:52;;;;;;;13.78;11.35;;;;;;;10.17;51.74;99277.45;1808667;77;21072;-61
2021/12/06 11:16:27;;;;;;;14.75;11.63;;;;;;;10.17;51.72;99278.78;1821972;77;21779;-61
2021/12/06 11:18:59;;;;;;;15.08;11.93;;;;;;;10.14;51.72;99269.84;1819557;78;21517;-60
2021/12/06 11:21:44;;;;;;;14.03;11.43;;;;;;;10.16;51.75;99267.83;1822245;77;21028;-61
2021/12/06 11:24:41;;;;;;;13.98;12.18;;;;;;;10.15;51.73;99268.34;1822275;78;20998;-61
2021/12/06 11:27:19;;;;;;;15.38;12.18;;;;;;;10.16;51.77;99266.50;1813390;77;21030;-60
2021/12/06 11:30:02;;;;;;;16.50;12.53;;;;;;;10.15;51.78;99270.99;1803448;78;21115;-60
2021/12/06 11:32:46;;;;;;;14.30;12.20;;;;;;;10.14;51.78;99268.03;1817914;77;21540;-60
2021/12/06 11:35:24;;;;;;;14.78;11.83;;;;;;;10.14;51.78;99271.16;1814750;78;21006;-61
2021/12/06 11:37:55;;;;;;;16.80;12.23;;;;;;;10.13;51.80;99266.88;1823529;77;21025;-60
2021/12/06 11:40:25;;;;;;;17.52;13.40;;;;;;;10.12;51.81;99266.05;1806378;78;21014;-61
2021/12/06 11:43:10;;;;;;;15.83;13.40;;;;;;;10.13;51.80;99261.56;1819918;77;21112;-61
2021/12/06 11:45:57;;;;;;;14.80;12.07;;;;;;;10.12;51.78;99255.91;1796516;77;21084;-61
2021/12/06 11:48:27;;;;;;;16.37;13.28;;;;;;;10.12;51.80;99267.86;1816244;77;21057;-62